Terminal Aerodrome Forecast
Issued by NWS Sterling, VA

Home | Current Version | Previous Version | Text Only | Print | Product List | Glossary On
Versions: 1 2 3 4 5 6 7 8 9 10 11 12 13 14 15 16 17 18 19 20 21 22 23
119
FTUS41 KLWX 271449 AAB
TAFBWI
TAF AMD
KBWI 271449Z 2715/2818 14003KT 6SM BR BKN010
     FM271600 15008KT P6SM SCT250
     FM271700 16010G18KT P6SM SCT250
     FM280900 28004KT 3SM BR SCT250
     FM281300 28004KT P6SM SCT250=

USA.gov is the U.S. government's official web portal to all federal, state and local government web resources and services.